sensor_id;sensor_type;location;lat;lon;timestamp;pressure;altitude;pressure_sealevel;temperature;humidity
68197;BME280;55019;49.382;11.358;2023-09-08T00:00:11;96992.56;;;17.55;100.00
68197;BME280;55019;49.382;11.358;2023-09-08T00:02:37;97008.28;;;17.61;100.00
68197;BME280;55019;49.382;11.358;2023-09-08T00:05:03;97004.06;;;17.60;100.00
68197;BME280;55019;49.382;11.358;2023-09-08T00:07:29;97005.66;;;17.61;100.00
68197;BME280;55019;49.382;11.358;2023-09-08T00:09:54;97006.28;;;17.63;100.00
68197;BME280;55019;49.382;11.358;2023-09-08T00:12:20;96999.38;;;17.49;100.00
68197;BME280;55019;49.382;11.358;2023-09-08T00:14:46;96997.97;;;17.47;100.00
68197;BME280;55019;49.382;11.358;2023-09-08T00:17:12;97001.16;;;17.42;100.00
68197;BME280;55019;49.382;11.358;2023-09-08T00:19:38;97007.03;;;17.51;100.00
68197;BME280;55019;49.382;11.358;2023-09-08T00:22:04;96998.09;;;17.33;100.00
68197;BME280;55019;49.382;11.358;2023-09-08T00:24:31;97004.84;;;17.27;100.00
68197;BME280;55019;49.382;11.358;2023-09-08T00:26:57;96988.34;;;17.20;100.00
68197;BME280;55019;49.382;11.358;2023-09-08T00:29:22;96990.34;;;17.18;100.00
68197;BME280;55019;49.382;11.358;2023-09-08T00:31:48;96983.56;;;17.24;100.00
68197;BME280;55019;49.382;11.358;2023-09-08T00:34:14;96994.84;;;17.31;100.00
68197;BME280;55019;49.382;11.358;2023-09-08T00:36:39;96977.41;;;16.97;100.00
68197;BME280;55019;49.382;11.358;2023-09-08T00:39:05;96991.34;;;17.11;100.00
68197;BME280;55019;49.382;11.358;2023-09-08T00:41:31;96995.25;;;16.94;100.00
68197;BME280;55019;49.382;11.358;2023-09-08T00:43:56;96987.03;;;16.97;100.00
68197;BME280;55019;49.382;11.358;2023-09-08T00:46:22;96991.03;;;16.93;100.00
68197;BME280;55019;49.382;11.358;2023-09-08T00:48:51;96994.63;;;16.92;100.00
68197;BME280;55019;49.382;11.358;2023-09-08T00:51:20;96985.56;;;16.88;100.00
68197;BME280;55019;49.382;11.358;2023-09-08T00:53:46;96991.75;;;16.80;100.00
68197;BME280;55019;49.382;11.358;2023-09-08T00:56:12;96974.38;;;16.60;100.00
68197;BME280;55019;49.382;11.358;2023-09-08T00:58:40;96979.22;;;16.63;100.00
68197;BME280;55019;49.382;11.358;2023-09-08T01:01:06;96984.97;;;16.58;100.00
68197;BME280;55019;49.382;11.358;2023-09-08T01:03:32;96993.63;;;16.59;100.00
68197;BME280;55019;49.382;11.358;2023-09-08T01:06:01;96990.53;;;16.49;100.00
68197;BME280;55019;49.382;11.358;2023-09-08T01:08:27;96991.44;;;16.62;100.00
68197;BME280;55019;49.382;11.358;2023-09-08T01:10:54;96990.44;;;16.63;100.00
68197;BME280;55019;49.382;11.358;2023-09-08T01:13:21;96987.44;;;16.39;100.00
68197;BME280;55019;49.382;11.358;2023-09-08T01:15:48;96984.66;;;16.40;100.00
68197;BME280;55019;49.382;11.358;2023-09-08T01:18:13;96990.34;;;16.50;100.00
68197;BME280;55019;49.382;11.358;2023-09-08T01:20:56;96991.28;;;16.43;100.00
68197;BME280;55019;49.382;11.358;2023-09-08T01:26:27;96988.59;;;16.15;100.00
68197;BME280;55019;49.382;11.358;2023-09-08T01:28:55;96987.81;;;16.36;100.00
68197;BME280;55019;49.382;11.358;2023-09-08T01:31:21;96997.63;;;16.34;100.00
68197;BME280;55019;49.382;11.358;2023-09-08T01:33:47;96993.31;;;16.26;100.00
68197;BME280;55019;49.382;11.358;2023-09-08T01:36:13;96986.88;;;16.22;100.00
68197;BME280;55019;49.382;11.358;2023-09-08T01:38:39;96994.06;;;16.20;100.00
68197;BME280;55019;49.382;11.358;2023-09-08T01:41:05;96988.44;;;16.17;100.00
68197;BME280;55019;49.382;11.358;2023-09-08T01:43:31;96988.31;;;16.25;100.00
68197;BME280;55019;49.382;11.358;2023-09-08T01:45:56;96984.41;;;16.14;100.00
68197;BME280;55019;49.382;11.358;2023-09-08T01:48:22;96984.34;;;16.08;100.00
68197;BME280;55019;49.382;11.358;2023-09-08T01:50:48;96990.19;;;16.10;100.00
68197;BME280;55019;49.382;11.358;2023-09-08T01:53:13;96985.84;;;16.17;100.00
68197;BME280;55019;49.382;11.358;2023-09-08T01:55:39;96978.94;;;16.09;100.00
68197;BME280;55019;49.382;11.358;2023-09-08T01:58:05;96975.56;;;16.15;100.00
68197;BME280;55019;49.382;11.358;2023-09-08T02:00:31;96973.09;;;16.07;100.00
68197;BME280;55019;49.382;11.358;2023-09-08T02:02:56;96968.34;;;16.11;100.00
68197;BME280;55019;49.382;11.358;2023-09-08T02:05:22;96979.19;;;16.14;100.00
68197;BME280;55019;49.382;11.358;2023-09-08T02:07:51;96975.56;;;16.15;100.00
68197;BME280;55019;49.382;11.358;2023-09-08T02:10:17;96976.72;;;16.06;100.00
68197;BME280;55019;49.382;11.358;2023-09-08T02:12:45;96982.09;;;16.05;100.00
68197;BME280;55019;49.382;11.358;2023-09-08T02:15:11;96981.84;;;16.00;100.00
68197;BME280;55019;49.382;11.358;2023-09-08T02:17:37;96976.16;;;15.90;100.00
68197;BME280;55019;49.382;11.358;2023-09-08T02:20:04;96972.91;;;15.88;100.00
68197;BME280;55019;49.382;11.358;2023-09-08T02:22:29;96979.88;;;15.81;100.00
68197;BME280;55019;49.382;11.358;2023-09-08T02:24:55;96974.41;;;15.76;100.00
68197;BME280;55019;49.382;11.358;2023-09-08T02:27:23;96982.16;;;15.70;100.00
68197;BME280;55019;49.382;11.358;2023-09-08T02:29:50;96976.28;;;15.82;100.00
68197;BME280;55019;49.382;11.358;2023-09-08T02:32:16;96979.38;;;15.71;100.00
68197;BME280;55019;49.382;11.358;2023-09-08T02:34:42;96968.44;;;15.82;100.00
68197;BME280;55019;49.382;11.358;2023-09-08T02:37:09;96969.56;;;15.73;100.00
68197;BME280;55019;49.382;11.358;2023-09-08T02:39:35;96979.53;;;15.70;100.00
68197;BME280;55019;49.382;11.358;2023-09-08T02:42:01;96978.50;;;15.64;100.00
68197;BME280;55019;49.382;11.358;2023-09-08T02:44:27;96966.25;;;15.65;100.00
68197;BME280;55019;49.382;11.358;2023-09-08T02:46:53;96978.75;;;15.69;100.00
68197;BME280;55019;49.382;11.358;2023-09-08T02:49:19;96973.28;;;15.64;100.00
68197;BME280;55019;49.382;11.358;2023-09-08T02:51:45;96980.22;;;15.57;100.00
68197;BME280;55019;49.382;11.358;2023-09-08T02:54:13;96983.47;;;15.59;100.00
68197;BME280;55019;49.382;11.358;2023-09-08T02:56:39;96977.69;;;15.64;100.00
68197;BME280;55019;49.382;11.358;2023-09-08T02:59:04;96980.94;;;15.51;100.00
68197;BME280;55019;49.382;11.358;2023-09-08T03:01:30;96984.03;;;15.40;100.00
68197;BME280;55019;49.382;11.358;2023-09-08T03:03:56;96984.03;;;15.40;100.00
68197;BME280;55019;49.382;11.358;2023-09-08T03:06:24;96988.84;;;15.43;100.00
68197;BME280;55019;49.382;11.358;2023-09-08T03:08:50;96984.19;;;15.24;100.00
68197;BME280;55019;49.382;11.358;2023-09-08T03:11:15;96987.34;;;15.34;100.00
68197;BME280;55019;49.382;11.358;2023-09-08T03:13:41;96990.50;;;15.30;100.00
68197;BME280;55019;49.382;11.358;2023-09-08T03:16:09;96981.97;;;15.36;100.00
68197;BME280;55019;49.382;11.358;2023-09-08T03:18:36;96983.75;;;15.21;100.00
68197;BME280;55019;49.382;11.358;2023-09-08T03:21:02;96985.50;;;15.28;100.00
68197;BME280;55019;49.382;11.358;2023-09-08T03:23:40;96982.22;;;15.26;100.00
68197;BME280;55019;49.382;11.358;2023-09-08T03:26:07;96984.75;;;15.20;100.00
68197;BME280;55019;49.382;11.358;2023-09-08T03:28:34;96979.91;;;15.31;100.00
68197;BME280;55019;49.382;11.358;2023-09-08T03:31:04;96979.19;;;15.37;100.00
68197;BME280;55019;49.382;11.358;2023-09-08T03:33:33;96984.66;;;15.28;100.00
68197;BME280;55019;49.382;11.358;2023-09-08T03:35:59;96987.69;;;15.17;100.00
68197;BME280;55019;49.382;11.358;2023-09-08T03:38:25;96979.91;;;15.02;100.00
68197;BME280;55019;49.382;11.358;2023-09-08T03:40:52;96976.25;;;15.11;100.00
68197;BME280;55019;49.382;11.358;2023-09-08T03:43:18;96967.50;;;15.04;100.00
68197;BME280;55019;49.382;11.358;2023-09-08T03:45:44;96979.63;;;15.12;100.00
68197;BME280;55019;49.382;11.358;2023-09-08T03:48:10;96966.19;;;15.08;100.00
68197;BME280;55019;49.382;11.358;2023-09-08T03:50:36;96972.03;;;15.10;100.00
68197;BME280;55019;49.382;11.358;2023-09-08T03:53:02;96969.16;;;15.05;100.00
68197;BME280;55019;49.382;11.358;2023-09-08T03:55:28;96966.88;;;15.02;100.00
68197;BME280;55019;49.382;11.358;2023-09-08T03:57:54;96971.03;;;14.97;100.00
68197;BME280;55019;49.382;11.358;2023-09-08T04:00:19;96972.38;;;14.93;100.00
68197;BME280;55019;49.382;11.358;2023-09-08T04:02:47;96973.19;;;14.93;100.00
68197;BME280;55019;49.382;11.358;2023-09-08T04:05:13;96972.19;;;14.94;100.00
68197;BME280;55019;49.382;11.358;2023-09-08T04:07:39;96968.53;;;14.74;100.00
68197;BME280;55019;49.382;11.358;2023-09-08T04:10:05;96963.94;;;14.76;100.00
68197;BME280;55019;49.382;11.358;2023-09-08T04:12:31;96969.69;;;14.86;100.00
68197;BME280;55019;49.382;11.358;2023-09-08T04:14:56;96973.63;;;14.82;100.00
68197;BME280;55019;49.382;11.358;2023-09-08T04:17:22;96982.59;;;14.65;100.00
68197;BME280;55019;49.382;11.358;2023-09-08T04:19:48;96984.84;;;14.68;100.00
68197;BME280;55019;49.382;11.358;2023-09-08T04:22:14;96973.59;;;14.53;100.00
68197;BME280;55019;49.382;11.358;2023-09-08T04:24:39;96976.03;;;14.55;100.00
68197;BME280;55019;49.382;11.358;2023-09-08T04:27:06;96973.06;;;14.43;100.00
68197;BME280;55019;49.382;11.358;2023-09-08T04:29:34;96973.78;;;14.38;100.00
68197;BME280;55019;49.382;11.358;2023-09-08T04:31:59;96973.44;;;14.55;100.00
68197;BME280;55019;49.382;11.358;2023-09-08T04:34:25;96973.28;;;14.56;100.00
68197;BME280;55019;49.382;11.358;2023-09-08T04:36:51;96975.94;;;14.48;100.00
68197;BME280;55019;49.382;11.358;2023-09-08T04:39:17;96975.53;;;14.59;100.00
68197;BME280;55019;49.382;11.358;2023-09-08T04:41:42;96975.06;;;14.70;100.00
68197;BME280;55019;49.382;11.358;2023-09-08T04:44:09;96980.88;;;14.58;100.00
68197;BME280;55019;49.382;11.358;2023-09-08T04:46:35;96979.53;;;14.47;100.00
68197;BME280;55019;49.382;11.358;2023-09-08T04:49:01;96985.09;;;14.59;100.00
68197;BME280;55019;49.382;11.358;2023-09-08T04:51:27;96990.13;;;14.60;100.00
68197;BME280;55019;49.382;11.358;2023-09-08T04:53:52;96988.53;;;14.59;100.00
68197;BME280;55019;49.382;11.358;2023-09-08T04:56:18;96988.09;;;14.70;100.00
68197;BME280;55019;49.382;11.358;2023-09-08T04:58:44;96987.09;;;14.71;100.00
68197;BME280;55019;49.382;11.358;2023-09-08T05:01:10;96995.41;;;14.67;100.00
68197;BME280;55019;49.382;11.358;2023-09-08T05:03:37;96993.44;;;14.69;100.00
68197;BME280;55019;49.382;11.358;2023-09-08T05:06:03;96990.59;;;14.78;100.00
68197;BME280;55019;49.382;11.358;2023-09-08T05:08:29;96997.31;;;14.87;100.00
68197;BME280;55019;49.382;11.358;2023-09-08T05:10:55;96986.66;;;14.97;100.00
68197;BME280;55019;49.382;11.358;2023-09-08T05:13:21;96994.72;;;15.02;100.00
68197;BME280;55019;49.382;11.358;2023-09-08T05:15:52;96987.63;;;15.10;100.00
68197;BME280;55019;49.382;11.358;2023-09-08T05:18:26;96992.66;;;15.12;100.00
68197;BME280;55019;49.382;11.358;2023-09-08T05:20:53;96990.94;;;15.19;100.00
68197;BME280;55019;49.382;11.358;2023-09-08T05:23:19;97001.81;;;15.22;100.00
68197;BME280;55019;49.382;11.358;2023-09-08T05:25:45;97001.44;;;15.25;100.00
68197;BME280;55019;49.382;11.358;2023-09-08T05:28:11;96995.53;;;15.31;100.00
68197;BME280;55019;49.382;11.358;2023-09-08T05:30:37;97000.75;;;15.31;100.00
68197;BME280;55019;49.382;11.358;2023-09-08T05:33:03;96996.06;;;15.41;100.00
68197;BME280;55019;49.382;11.358;2023-09-08T05:35:29;97001.63;;;15.38;100.00
68197;BME280;55019;49.382;11.358;2023-09-08T05:37:55;96999.53;;;15.48;100.00
68197;BME280;55019;49.382;11.358;2023-09-08T05:40:20;96997.00;;;15.55;100.00
68197;BME280;55019;49.382;11.358;2023-09-08T05:42:49;96988.84;;;15.58;100.00
68197;BME280;55019;49.382;11.358;2023-09-08T05:45:15;96994.38;;;15.69;100.00
68197;BME280;55019;49.382;11.358;2023-09-08T05:47:41;97000.09;;;15.79;100.00
68197;BME280;55019;49.382;11.358;2023-09-08T05:50:08;97003.16;;;15.83;100.00
68197;BME280;55019;49.382;11.358;2023-09-08T05:52:34;96993.34;;;15.85;100.00
68197;BME280;55019;49.382;11.358;2023-09-08T05:55:00;97003.06;;;15.97;100.00
68197;BME280;55019;49.382;11.358;2023-09-08T05:57:26;97010.41;;;16.08;100.00
68197;BME280;55019;49.382;11.358;2023-09-08T05:59:53;97006.81;;;16.09;100.00
68197;BME280;55019;49.382;11.358;2023-09-08T06:02:18;97010.56;;;16.27;100.00
68197;BME280;55019;49.382;11.358;2023-09-08T06:04:44;97006.06;;;16.36;100.00
68197;BME280;55019;49.382;11.358;2023-09-08T06:07:11;97013.97;;;16.42;100.00
68197;BME280;55019;49.382;11.358;2023-09-08T06:09:37;97014.44;;;16.52;100.00
68197;BME280;55019;49.382;11.358;2023-09-08T06:12:03;97008.28;;;16.60;100.00
68197;BME280;55019;49.382;11.358;2023-09-08T06:14:31;97009.13;;;16.67;100.00
68197;BME280;55019;49.382;11.358;2023-09-08T06:16:56;97013.22;;;16.82;100.00
68197;BME280;55019;49.382;11.358;2023-09-08T06:19:22;97000.19;;;16.82;100.00
68197;BME280;55019;49.382;11.358;2023-09-08T06:21:48;96998.25;;;16.91;100.00
68197;BME280;55019;49.382;11.358;2023-09-08T06:24:14;96990.50;;;16.70;100.00
68197;BME280;55019;49.382;11.358;2023-09-08T06:26:39;97007.06;;;16.90;100.00
68197;BME280;55019;49.382;11.358;2023-09-08T06:29:06;97004.75;;;17.08;100.00
68197;BME280;55019;49.382;11.358;2023-09-08T06:31:32;97008.84;;;17.17;100.00
68197;BME280;55019;49.382;11.358;2023-09-08T06:33:58;96997.63;;;17.29;100.00
68197;BME280;55019;49.382;11.358;2023-09-08T06:36:24;96997.94;;;17.41;100.00
68197;BME280;55019;49.382;11.358;2023-09-08T06:38:51;97006.19;;;17.44;100.00
68197;BME280;55019;49.382;11.358;2023-09-08T06:41:18;96995.31;;;17.41;100.00
68197;BME280;55019;49.382;11.358;2023-09-08T06:43:44;96990.41;;;17.25;100.00
68197;BME280;55019;49.382;11.358;2023-09-08T06:46:15;96994.97;;;17.56;100.00
68197;BME280;55019;49.382;11.358;2023-09-08T06:48:41;97007.50;;;17.67;100.00
68197;BME280;55019;49.382;11.358;2023-09-08T06:51:07;97002.72;;;17.90;100.00
68197;BME280;55019;49.382;11.358;2023-09-08T06:53:33;97009.56;;;17.91;100.00
68197;BME280;55019;49.382;11.358;2023-09-08T06:55:59;96999.91;;;18.11;100.00
68197;BME280;55019;49.382;11.358;2023-09-08T06:58:25;97011.66;;;18.28;100.00
68197;BME280;55019;49.382;11.358;2023-09-08T07:00:50;97007.84;;;18.50;100.00
68197;BME280;55019;49.382;11.358;2023-09-08T07:03:21;97008.41;;;18.85;100.00
68197;BME280;55019;49.382;11.358;2023-09-08T07:05:50;97004.34;;;19.14;100.00
68197;BME280;55019;49.382;11.358;2023-09-08T07:08:16;97000.25;;;19.38;100.00
68197;BME280;55019;49.382;11.358;2023-09-08T07:10:43;97006.09;;;19.84;100.00
68197;BME280;55019;49.382;11.358;2023-09-08T07:13:10;97006.22;;;20.02;91.12
68197;BME280;55019;49.382;11.358;2023-09-08T07:15:36;97003.06;;;20.48;91.80
68197;BME280;55019;49.382;11.358;2023-09-08T07:18:02;97010.03;;;20.37;88.29
68197;BME280;55019;49.382;11.358;2023-09-08T07:20:28;97009.66;;;20.57;84.76
68197;BME280;55019;49.382;11.358;2023-09-08T07:22:54;97004.41;;;20.57;86.75
68197;BME280;55019;49.382;11.358;2023-09-08T07:25:20;96995.34;;;20.53;86.27
68197;BME280;55019;49.382;11.358;2023-09-08T07:27:46;97002.06;;;20.49;87.43
68197;BME280;55019;49.382;11.358;2023-09-08T07:30:12;97003.88;;;20.73;86.08
68197;BME280;55019;49.382;11.358;2023-09-08T07:32:38;96999.00;;;21.01;85.99
68197;BME280;55019;49.382;11.358;2023-09-08T07:35:05;97008.22;;;21.64;78.12
68197;BME280;55019;49.382;11.358;2023-09-08T07:37:31;96999.88;;;21.67;73.75
68197;BME280;55019;49.382;11.358;2023-09-08T07:39:57;97009.28;;;21.75;72.82
68197;BME280;55019;49.382;11.358;2023-09-08T07:42:23;97004.41;;;22.07;75.57
68197;BME280;55019;49.382;11.358;2023-09-08T07:44:51;97010.97;;;22.57;72.43
68197;BME280;55019;49.382;11.358;2023-09-08T07:47:16;97004.91;;;22.68;75.40
68197;BME280;55019;49.382;11.358;2023-09-08T07:49:45;97008.84;;;22.07;71.44
68197;BME280;55019;49.382;11.358;2023-09-08T07:52:12;97013.44;;;22.41;70.47
68197;BME280;55019;49.382;11.358;2023-09-08T07:54:37;97011.91;;;23.09;70.06
68197;BME280;55019;49.382;11.358;2023-09-08T07:57:03;97012.69;;;22.98;66.16
68197;BME280;55019;49.382;11.358;2023-09-08T07:59:29;97006.66;;;23.20;64.30
68197;BME280;55019;49.382;11.358;2023-09-08T08:01:55;97011.78;;;22.69;69.12
68197;BME280;55019;49.382;11.358;2023-09-08T08:04:20;97013.25;;;23.57;71.30
68197;BME280;55019;49.382;11.358;2023-09-08T08:06:46;97011.03;;;24.05;65.59
68197;BME280;55019;49.382;11.358;2023-09-08T08:09:13;97008.88;;;24.46;64.77
68197;BME280;55019;49.382;11.358;2023-09-08T08:11:38;97011.63;;;24.51;62.93
68197;BME280;55019;49.382;11.358;2023-09-08T08:14:04;97012.59;;;24.78;55.76
68197;BME280;55019;49.382;11.358;2023-09-08T08:16:30;97007.94;;;24.52;55.71
68197;BME280;55019;49.382;11.358;2023-09-08T08:18:55;96999.56;;;25.09;59.84
68197;BME280;55019;49.382;11.358;2023-09-08T08:21:21;97012.31;;;25.12;55.22
68197;BME280;55019;49.382;11.358;2023-09-08T08:23:49;97012.97;;;25.19;55.66
68197;BME280;55019;49.382;11.358;2023-09-08T08:26:14;97016.09;;;25.00;59.19
68197;BME280;55019;49.382;11.358;2023-09-08T08:28:40;97004.66;;;25.16;55.28
68197;BME280;55019;49.382;11.358;2023-09-08T08:31:06;97015.25;;;25.32;54.67
68197;BME280;55019;49.382;11.358;2023-09-08T08:33:32;97008.44;;;26.01;54.33
68197;BME280;55019;49.382;11.358;2023-09-08T08:35:58;97014.16;;;26.41;50.82
68197;BME280;55019;49.382;11.358;2023-09-08T08:38:23;97004.59;;;26.13;49.73
68197;BME280;55019;49.382;11.358;2023-09-08T08:40:49;96999.84;;;26.15;49.69
68197;BME280;55019;49.382;11.358;2023-09-08T08:43:15;97001.84;;;26.87;48.98
68197;BME280;55019;49.382;11.358;2023-09-08T08:45:42;96992.19;;;27.08;48.78
68197;BME280;55019;49.382;11.358;2023-09-08T08:48:08;97003.22;;;27.36;46.78
68197;BME280;55019;49.382;11.358;2023-09-08T08:50:35;97006.94;;;27.35;44.91
68197;BME280;55019;49.382;11.358;2023-09-08T08:53:03;97010.75;;;27.54;42.14
68197;BME280;55019;49.382;11.358;2023-09-08T08:55:29;96996.75;;;27.17;44.36
68197;BME280;55019;49.382;11.358;2023-09-08T08:58:03;97001.25;;;27.12;43.29
68197;BME280;55019;49.382;11.358;2023-09-08T09:00:35;96993.72;;;28.07;45.53
68197;BME280;55019;49.382;11.358;2023-09-08T09:03:05;96997.66;;;27.94;42.24
68197;BME280;55019;49.382;11.358;2023-09-08T09:05:32;96997.69;;;27.43;44.02
68197;BME280;55019;49.382;11.358;2023-09-08T09:08:13;96998.03;;;28.42;44.06
68197;BME280;55019;49.382;11.358;2023-09-08T09:10:39;97003.88;;;28.99;43.74
68197;BME280;55019;49.382;11.358;2023-09-08T09:13:05;96993.78;;;29.11;39.96
68197;BME280;55019;49.382;11.358;2023-09-08T09:15:31;96998.31;;;28.96;42.37
68197;BME280;55019;49.382;11.358;2023-09-08T09:18:05;96999.13;;;29.89;43.82
68197;BME280;55019;49.382;11.358;2023-09-08T09:20:31;97001.09;;;30.61;38.48
68197;BME280;55019;49.382;11.358;2023-09-08T09:22:57;96989.81;;;30.30;40.26
68197;BME280;55019;49.382;11.358;2023-09-08T09:25:28;96992.09;;;30.85;38.85
68197;BME280;55019;49.382;11.358;2023-09-08T09:28:04;96987.06;;;31.12;36.84
68197;BME280;55019;49.382;11.358;2023-09-08T09:30:47;96985.16;;;30.84;36.53
68197;BME280;55019;49.382;11.358;2023-09-08T09:33:14;96992.97;;;29.89;37.56
68197;BME280;55019;49.382;11.358;2023-09-08T09:38:06;96981.06;;;29.71;39.23
68197;BME280;55019;49.382;11.358;2023-09-08T09:40:34;96983.72;;;30.30;37.29
68197;BME280;55019;49.382;11.358;2023-09-08T09:42:59;96976.31;;;30.60;37.93
68197;BME280;55019;49.382;11.358;2023-09-08T09:45:25;96971.84;;;31.13;38.20
68197;BME280;55019;49.382;11.358;2023-09-08T09:47:52;96974.50;;;31.36;36.08
68197;BME280;55019;49.382;11.358;2023-09-08T09:50:31;96971.31;;;32.23;36.92
68197;BME280;55019;49.382;11.358;2023-09-08T09:52:59;96971.06;;;30.12;33.94
68197;BME280;55019;49.382;11.358;2023-09-08T09:55:27;96968.56;;;30.64;34.51
68197;BME280;55019;49.382;11.358;2023-09-08T09:57:57;96968.72;;;30.72;36.68
68197;BME280;55019;49.382;11.358;2023-09-08T10:00:30;96964.13;;;31.58;37.04
68197;BME280;55019;49.382;11.358;2023-09-08T10:02:56;96968.34;;;32.24;36.43
68197;BME280;55019;49.382;11.358;2023-09-08T10:05:24;96956.09;;;32.37;35.86
68197;BME280;55019;49.382;11.358;2023-09-08T10:07:50;96961.81;;;32.67;35.04
68197;BME280;55019;49.382;11.358;2023-09-08T10:10:17;96955.53;;;33.03;32.63
68197;BME280;55019;49.382;11.358;2023-09-08T10:12:45;96958.66;;;33.51;33.22
68197;BME280;55019;49.382;11.358;2023-09-08T10:15:12;96958.00;;;33.45;33.50
68197;BME280;55019;49.382;11.358;2023-09-08T10:17:40;96958.47;;;33.74;33.27
68197;BME280;55019;49.382;11.358;2023-09-08T10:20:08;96959.09;;;32.35;30.69
68197;BME280;55019;49.382;11.358;2023-09-08T10:22:41;96952.72;;;31.01;33.02
68197;BME280;55019;49.382;11.358;2023-09-08T10:25:09;96959.47;;;30.65;34.04
68197;BME280;55019;49.382;11.358;2023-09-08T10:27:36;96956.94;;;30.78;38.74
68197;BME280;55019;49.382;11.358;2023-09-08T10:30:04;96951.41;;;31.92;35.49
68197;BME280;55019;49.382;11.358;2023-09-08T10:32:32;96945.84;;;32.44;32.11
68197;BME280;55019;49.382;11.358;2023-09-08T10:35:00;96944.63;;;33.13;33.68
68197;BME280;55019;49.382;11.358;2023-09-08T10:37:26;96949.84;;;33.50;34.12
68197;BME280;55019;49.382;11.358;2023-09-08T10:40:24;96947.13;;;32.46;31.57
68197;BME280;55019;49.382;11.358;2023-09-08T10:43:09;96947.69;;;32.62;34.61
68197;BME280;55019;49.382;11.358;2023-09-08T10:45:35;96950.94;;;32.90;33.91
68197;BME280;55019;49.382;11.358;2023-09-08T10:48:04;96942.47;;;33.15;32.67
68197;BME280;55019;49.382;11.358;2023-09-08T10:50:33;96931.78;;;33.69;28.58
68197;BME280;55019;49.382;11.358;2023-09-08T10:53:18;96934.09;;;34.33;31.00
68197;BME280;55019;49.382;11.358;2023-09-08T10:55:49;96941.69;;;34.75;30.63
68197;BME280;55019;49.382;11.358;2023-09-08T10:58:21;96947.78;;;34.67;29.67
68197;BME280;55019;49.382;11.358;2023-09-08T11:00:54;96936.66;;;34.60;31.61
68197;BME280;55019;49.382;11.358;2023-09-08T11:03:27;96939.00;;;34.75;30.05
68197;BME280;55019;49.382;11.358;2023-09-08T11:05:53;96935.19;;;35.28;29.95
68197;BME280;55019;49.382;11.358;2023-09-08T11:08:19;96926.03;;;34.33;29.50
68197;BME280;55019;49.382;11.358;2023-09-08T11:10:45;96923.72;;;34.62;30.30
68197;BME280;55019;49.382;11.358;2023-09-08T11:13:11;96931.88;;;35.01;29.13
68197;BME280;55019;49.382;11.358;2023-09-08T11:15:37;96936.53;;;34.87;30.82
68197;BME280;55019;49.382;11.358;2023-09-08T11:18:06;96925.06;;;34.29;28.93
68197;BME280;55019;49.382;11.358;2023-09-08T11:20:34;96929.22;;;35.09;29.59
68197;BME280;55019;49.382;11.358;2023-09-08T11:22:59;96937.00;;;34.89;28.91
68197;BME280;55019;49.382;11.358;2023-09-08T11:25:25;96938.56;;;34.81;28.35
68197;BME280;55019;49.382;11.358;2023-09-08T11:27:51;96934.94;;;35.16;29.88
68197;BME280;55019;49.382;11.358;2023-09-08T11:30:20;96935.69;;;34.56;31.89
68197;BME280;55019;49.382;11.358;2023-09-08T11:32:46;96939.81;;;34.18;28.77
68197;BME280;55019;49.382;11.358;2023-09-08T11:35:12;96938.38;;;34.56;27.83
68197;BME280;55019;49.382;11.358;2023-09-08T11:37:42;96934.94;;;33.85;30.55
68197;BME280;55019;49.382;11.358;2023-09-08T11:40:09;96938.22;;;33.55;28.53
68197;BME280;55019;49.382;11.358;2023-09-08T11:42:38;96934.84;;;33.76;28.88
68197;BME280;55019;49.382;11.358;2023-09-08T11:45:13;96937.84;;;33.21;27.81
68197;BME280;55019;49.382;11.358;2023-09-08T11:47:43;96950.81;;;32.69;31.61
68197;BME280;55019;49.382;11.358;2023-09-08T11:50:10;96939.22;;;32.23;29.54
68197;BME280;55019;49.382;11.358;2023-09-08T11:52:45;96943.59;;;32.83;31.54
68197;BME280;55019;49.382;11.358;2023-09-08T11:55:12;96934.50;;;32.65;27.77
68197;BME280;55019;49.382;11.358;2023-09-08T11:57:40;96936.94;;;33.25;30.63
68197;BME280;55019;49.382;11.358;2023-09-08T12:00:06;96942.09;;;32.45;28.69
68197;BME280;55019;49.382;11.358;2023-09-08T12:02:35;96939.75;;;32.57;30.17
68197;BME280;55019;49.382;11.358;2023-09-08T12:05:05;96938.53;;;33.26;31.50
68197;BME280;55019;49.382;11.358;2023-09-08T12:07:33;96928.31;;;32.19;27.94
68197;BME280;55019;49.382;11.358;2023-09-08T12:10:07;96928.66;;;32.95;30.84
68197;BME280;55019;49.382;11.358;2023-09-08T12:12:32;96931.88;;;33.37;28.34
68197;BME280;55019;49.382;11.358;2023-09-08T12:14:58;96934.53;;;33.37;29.17
68197;BME280;55019;49.382;11.358;2023-09-08T12:17:24;96923.69;;;32.57;29.67
68197;BME280;55019;49.382;11.358;2023-09-08T12:19:51;96924.41;;;33.07;29.86
68197;BME280;55019;49.382;11.358;2023-09-08T12:22:17;96925.19;;;32.31;28.99
68197;BME280;55019;49.382;11.358;2023-09-08T12:27:19;96912.63;;;31.52;30.05
68197;BME280;55019;49.382;11.358;2023-09-08T12:29:55;96920.28;;;32.01;30.91
68197;BME280;55019;49.382;11.358;2023-09-08T12:32:22;96914.13;;;32.00;32.05
68197;BME280;55019;49.382;11.358;2023-09-08T12:34:51;96912.88;;;31.56;29.13
68197;BME280;55019;49.382;11.358;2023-09-08T12:37:22;96914.34;;;31.85;30.60
68197;BME280;55019;49.382;11.358;2023-09-08T12:39:47;96911.88;;;31.89;33.71
68197;BME280;55019;49.382;11.358;2023-09-08T12:42:13;96910.34;;;32.38;29.16
68197;BME280;55019;49.382;11.358;2023-09-08T12:44:39;96911.59;;;32.46;29.06
68197;BME280;55019;49.382;11.358;2023-09-08T12:47:06;96908.44;;;32.89;29.75
68197;BME280;55019;49.382;11.358;2023-09-08T12:49:32;96906.38;;;32.99;29.20
68197;BME280;55019;49.382;11.358;2023-09-08T12:51:58;96909.66;;;31.96;29.75